createdAt,value
2023-02-17T00:00:56.347Z,20.60
2023-02-17T00:03:23.695Z,18.58
2023-02-17T00:05:51.160Z,17.35
2023-02-17T00:08:18.045Z,16.35
2023-02-17T00:10:44.951Z,16.40
2023-02-17T00:13:11.610Z,14.27
2023-02-17T00:15:39.717Z,13.90
2023-02-17T00:18:06.318Z,15.02
2023-02-17T00:20:32.883Z,19.45
2023-02-17T00:22:59.410Z,17.35
2023-02-17T00:25:26.010Z,15.25
2023-02-17T00:27:52.524Z,20.13
2023-02-17T00:30:19.341Z,18.10
2023-02-17T00:32:45.968Z,14.48
2023-02-17T00:35:12.668Z,15.55
2023-02-17T00:37:40.243Z,26.73
2023-02-17T00:40:07.417Z,17.00
2023-02-17T00:42:33.983Z,15.98
2023-02-17T00:45:00.576Z,15.07
2023-02-17T00:47:27.078Z,25.73
2023-02-17T00:49:53.576Z,18.80
2023-02-17T00:52:20.090Z,16.73
2023-02-17T00:54:46.654Z,18.52
2023-02-17T00:57:13.189Z,16.13
2023-02-17T00:59:39.706Z,20.30
2023-02-17T01:02:06.261Z,17.95
2023-02-17T01:04:32.928Z,15.02
2023-02-17T01:06:59.452Z,17.60
2023-02-17T01:09:26.056Z,15.27
2023-02-17T01:11:52.724Z,15.57
2023-02-17T01:14:19.509Z,16.65
2023-02-17T01:16:48.250Z,13.57
2023-02-17T01:19:17.753Z,16.95
2023-02-17T01:21:44.999Z,14.85
2023-02-17T01:24:12.477Z,14.82
2023-02-17T01:26:39.904Z,14.68
2023-02-17T01:29:07.572Z,14.32
2023-02-17T01:31:34.245Z,15.63
2023-02-17T01:34:02.693Z,15.02
2023-02-17T01:36:29.604Z,15.55
2023-02-17T01:38:56.177Z,13.85
2023-02-17T01:41:26.998Z,14.75
2023-02-17T01:44:14.543Z,12.68
2023-02-17T01:46:43.852Z,15.02
2023-02-17T01:49:35.819Z,12.13
2023-02-17T01:52:10.939Z,10.35
2023-02-17T01:54:48.889Z,12.35
2023-02-17T01:57:17.897Z,13.00
2023-02-17T01:59:45.162Z,14.07
2023-02-17T02:02:12.444Z,16.60
2023-02-17T02:04:42.167Z,14.75
2023-02-17T02:07:15.784Z,14.00
2023-02-17T02:09:52.738Z,12.68
2023-02-17T02:12:23.781Z,12.98
2023-02-17T02:17:35.985Z,12.43
2023-02-17T02:20:22.148Z,12.85
2023-02-17T02:23:17.346Z,14.65
2023-02-17T02:26:00.548Z,15.13
2023-02-17T02:28:44.947Z,12.32
2023-02-17T02:31:31.333Z,12.50
2023-02-17T02:34:02.011Z,13.45
2023-02-17T02:36:39.815Z,15.13
2023-02-17T02:39:20.838Z,15.43
2023-02-17T02:41:53.219Z,14.25
2023-02-17T02:44:21.234Z,11.93
2023-02-17T02:47:02.919Z,12.90
2023-02-17T02:49:31.405Z,12.98
2023-02-17T02:52:14.698Z,14.30
2023-02-17T02:54:51.357Z,14.40
2023-02-17T02:57:29.831Z,16.98
2023-02-17T03:00:06.354Z,12.77
2023-02-17T03:02:52.693Z,14.20
2023-02-17T03:05:45.264Z,12.70
2023-02-17T03:08:26.510Z,13.40
2023-02-17T03:10:54.924Z,11.65
2023-02-17T03:13:21.849Z,13.32
2023-02-17T03:15:49.191Z,12.60
2023-02-17T03:18:16.089Z,15.30
2023-02-17T03:21:00.043Z,16.50
2023-02-17T03:23:26.584Z,17.60
2023-02-17T03:25:53.165Z,14.82
2023-02-17T03:28:19.707Z,14.65
2023-02-17T03:30:46.257Z,16.05
2023-02-17T03:33:12.793Z,18.02
2023-02-17T03:35:39.319Z,14.48
2023-02-17T03:38:06.512Z,18.00
2023-02-17T03:40:33.062Z,10.65
2023-02-17T03:42:59.582Z,17.27
2023-02-17T03:45:26.180Z,17.75
2023-02-17T03:47:52.802Z,12.32
2023-02-17T03:50:19.398Z,14.15
2023-02-17T03:52:46.283Z,15.48
2023-02-17T03:55:13.486Z,13.35
2023-02-17T03:57:40.047Z,16.40
2023-02-17T04:00:09.323Z,12.48
2023-02-17T04:02:35.871Z,12.95
2023-02-17T04:05:02.837Z,14.13
2023-02-17T04:07:29.515Z,15.32
2023-02-17T04:09:56.083Z,12.85
2023-02-17T04:12:22.679Z,13.40
2023-02-17T04:14:49.255Z,13.95
2023-02-17T04:17:15.890Z,11.98
2023-02-17T04:19:42.614Z,16.20
2023-02-17T04:22:09.176Z,14.27
2023-02-17T04:24:38.866Z,11.13
2023-02-17T04:27:05.703Z,15.35
2023-02-17T04:29:33.500Z,17.00
2023-02-17T04:32:00.211Z,13.80
2023-02-17T04:34:26.909Z,12.65
2023-02-17T04:36:53.501Z,13.60
2023-02-17T04:39:20.220Z,15.65
2023-02-17T04:41:46.908Z,15.18
2023-02-17T04:44:13.420Z,12.80
2023-02-17T04:46:39.918Z,15.98
2023-02-17T04:49:06.544Z,13.45
2023-02-17T04:51:33.087Z,13.32
2023-02-17T04:53:59.593Z,12.23
2023-02-17T04:56:26.216Z,12.80
2023-02-17T04:58:52.750Z,13.05
2023-02-17T05:01:19.427Z,11.95
2023-02-17T05:03:45.977Z,14.13
2023-02-17T05:06:12.570Z,12.35
2023-02-17T05:08:39.126Z,10.95
2023-02-17T05:11:05.664Z,14.05
2023-02-17T05:13:33.136Z,11.43
2023-02-17T05:15:59.718Z,11.02
2023-02-17T05:18:26.250Z,15.23
2023-02-17T05:20:52.785Z,9.52
2023-02-17T05:23:19.500Z,12.05
2023-02-17T05:25:46.026Z,10.05
2023-02-17T05:28:12.575Z,9.60
2023-02-17T05:30:39.130Z,10.88
2023-02-17T05:33:05.725Z,12.43
2023-02-17T05:35:35.226Z,10.93
2023-02-17T05:38:01.924Z,10.88
2023-02-17T05:40:28.542Z,9.70
2023-02-17T05:42:55.076Z,10.55
2023-02-17T05:45:21.603Z,11.13
2023-02-17T05:47:48.175Z,9.38
2023-02-17T05:50:14.773Z,12.50
2023-02-17T05:52:41.330Z,14.85
2023-02-17T05:55:08.177Z,17.80
2023-02-17T05:57:34.852Z,14.40
2023-02-17T06:00:01.557Z,9.48
2023-02-17T06:02:28.080Z,13.07
2023-02-17T06:04:54.716Z,11.43
2023-02-17T06:07:21.323Z,14.05
2023-02-17T06:09:47.906Z,10.07
2023-02-17T06:12:14.597Z,12.48
2023-02-17T06:14:41.726Z,14.10
2023-02-17T06:17:08.304Z,12.52
2023-02-17T06:19:34.872Z,9.80
2023-02-17T06:22:01.428Z,14.10
2023-02-17T06:24:28.059Z,10.63
2023-02-17T06:26:54.623Z,12.15
2023-02-17T06:29:21.186Z,17.55
2023-02-17T06:31:47.800Z,12.70
2023-02-17T06:34:14.455Z,11.20
2023-02-17T06:36:40.986Z,12.80
2023-02-17T06:39:07.512Z,11.93
2023-02-17T06:41:34.035Z,10.30
2023-02-17T06:44:01.642Z,11.77
2023-02-17T06:46:28.177Z,13.82
2023-02-17T06:48:54.693Z,8.70
2023-02-17T06:51:21.228Z,11.32
2023-02-17T06:53:47.710Z,11.50
2023-02-17T06:56:14.203Z,9.68
2023-02-17T06:58:40.767Z,11.32
2023-02-17T07:01:14.114Z,8.95
2023-02-17T07:03:40.634Z,10.00
2023-02-17T07:06:07.419Z,10.95
2023-02-17T07:08:34.234Z,10.32
2023-02-17T07:11:08.250Z,9.88
2023-02-17T07:13:35.105Z,10.18
2023-02-17T07:16:01.700Z,11.60
2023-02-17T07:18:28.617Z,9.82
2023-02-17T07:20:55.410Z,10.02
2023-02-17T07:23:22.097Z,11.57
2023-02-17T07:25:48.655Z,12.25
2023-02-17T07:28:15.218Z,9.82
2023-02-17T07:30:43.374Z,9.65
2023-02-17T07:33:11.009Z,13.48
2023-02-17T07:35:43.806Z,11.93
2023-02-17T07:38:11.094Z,8.30
2023-02-17T07:40:38.155Z,9.27
2023-02-17T07:43:04.798Z,10.13
2023-02-17T07:45:31.554Z,12.80
2023-02-17T07:47:58.100Z,10.75
2023-02-17T07:50:24.597Z,11.20
2023-02-17T07:52:51.333Z,10.40
2023-02-17T07:55:17.926Z,13.90
2023-02-17T07:57:44.444Z,12.85
2023-02-17T08:00:11.511Z,11.18
2023-02-17T08:02:38.177Z,11.02
2023-02-17T08:05:05.019Z,9.93
2023-02-17T08:07:32.895Z,11.93
2023-02-17T08:10:18.022Z,9.57
2023-02-17T08:13:03.328Z,8.57
2023-02-17T08:15:32.909Z,12.00
2023-02-17T08:18:00.655Z,15.57
2023-02-17T08:20:27.913Z,13.27
2023-02-17T08:22:54.567Z,9.15
2023-02-17T08:25:21.086Z,8.88
2023-02-17T08:27:47.702Z,9.23
2023-02-17T08:30:14.549Z,11.05
2023-02-17T08:32:41.126Z,9.40
2023-02-17T08:35:07.946Z,8.52
2023-02-17T08:37:34.555Z,12.80
2023-02-17T08:40:01.333Z,9.65
2023-02-17T08:42:28.198Z,12.38
2023-02-17T08:44:55.043Z,11.80
2023-02-17T08:47:21.589Z,11.80
2023-02-17T08:49:48.186Z,13.43
2023-02-17T08:52:14.734Z,13.25
2023-02-17T08:54:41.266Z,10.63
2023-02-17T08:57:07.836Z,9.75
2023-02-17T08:59:34.419Z,12.38
2023-02-17T09:02:00.950Z,10.52
2023-02-17T09:04:27.535Z,13.38
2023-02-17T09:06:58.289Z,11.38
2023-02-17T09:09:28.886Z,15.13
2023-02-17T09:11:57.392Z,18.20
2023-02-17T09:14:24.052Z,10.25
2023-02-17T09:16:51.827Z,14.77
2023-02-17T09:19:18.844Z,14.35
2023-02-17T09:21:45.438Z,11.15
2023-02-17T09:24:12.182Z,14.13
2023-02-17T09:26:38.951Z,10.63
2023-02-17T09:29:06.342Z,11.48
2023-02-17T09:31:35.030Z,11.60
2023-02-17T09:34:01.829Z,12.98
2023-02-17T09:36:33.655Z,13.25
2023-02-17T09:39:01.535Z,13.32
2023-02-17T09:41:36.311Z,9.48
2023-02-17T09:44:04.866Z,12.15
2023-02-17T09:46:59.385Z,11.85
2023-02-17T09:49:34.971Z,12.85
2023-02-17T09:52:25.932Z,17.40
2023-02-17T09:55:01.309Z,19.80
2023-02-17T09:57:31.425Z,15.52
2023-02-17T10:00:12.039Z,10.13
2023-02-17T10:03:17.971Z,18.48
2023-02-17T10:06:13.156Z,13.40
2023-02-17T10:08:59.154Z,12.80
2023-02-17T10:11:33.381Z,10.45
2023-02-17T10:14:09.946Z,16.63
2023-02-17T10:16:43.879Z,15.85
2023-02-17T10:19:26.831Z,14.88
2023-02-17T10:22:05.744Z,15.25
2023-02-17T10:24:32.334Z,15.45
2023-02-17T10:27:25.878Z,13.20
2023-02-17T10:30:32.243Z,11.27
2023-02-17T10:33:11.281Z,13.23
2023-02-17T10:35:45.918Z,14.05
2023-02-17T10:38:28.779Z,13.02
2023-02-17T10:40:56.358Z,11.63
2023-02-17T10:43:29.809Z,15.27
2023-02-17T10:45:57.666Z,16.60
2023-02-17T10:48:38.496Z,16.75
2023-02-17T10:51:05.689Z,11.77
2023-02-17T10:53:37.031Z,13.40
2023-02-17T10:56:33.772Z,12.55
2023-02-17T10:59:07.162Z,12.50
2023-02-17T11:01:34.300Z,12.68
2023-02-17T11:04:11.577Z,14.27
2023-02-17T11:06:54.612Z,14.82
2023-02-17T11:09:23.296Z,12.25
2023-02-17T11:11:58.054Z,11.50
2023-02-17T11:14:29.351Z,13.48
2023-02-17T11:17:18.218Z,10.05
2023-02-17T11:19:59.027Z,15.38
2023-02-17T11:22:44.404Z,15.48
2023-02-17T11:25:26.077Z,13.27
2023-02-17T11:27:56.972Z,14.25
2023-02-17T11:30:25.546Z,9.93
2023-02-17T11:32:55.045Z,13.00
2023-02-17T11:35:35.893Z,13.15
2023-02-17T11:38:10.600Z,12.07
2023-02-17T11:40:37.352Z,14.82
2023-02-17T11:43:05.569Z,13.65
2023-02-17T11:45:48.902Z,18.70
2023-02-17T11:48:39.949Z,9.57
2023-02-17T11:51:22.451Z,8.55
2023-02-17T11:54:03.758Z,16.95
2023-02-17T11:56:36.649Z,13.15
2023-02-17T11:59:26.333Z,12.02
2023-02-17T12:02:11.852Z,11.88
2023-02-17T12:05:05.302Z,15.48
2023-02-17T12:08:17.612Z,9.65
2023-02-17T12:11:09.346Z,10.90
2023-02-17T12:13:55.415Z,9.48
2023-02-17T12:16:44.169Z,17.13
2023-02-17T12:19:26.862Z,10.18
2023-02-17T12:22:07.426Z,9.93
2023-02-17T12:25:03.455Z,12.68
2023-02-17T12:28:10.339Z,11.43
2023-02-17T12:30:52.819Z,12.15
2023-02-17T12:33:50.448Z,11.70
2023-02-17T12:36:19.346Z,10.85
2023-02-17T12:38:53.825Z,9.52
2023-02-17T12:41:26.363Z,12.63
2023-02-17T12:43:58.090Z,10.77
2023-02-17T12:46:29.242Z,6.57
2023-02-17T12:49:06.561Z,9.77
2023-02-17T12:51:40.958Z,10.57
2023-02-17T12:54:13.445Z,10.55
2023-02-17T12:56:59.830Z,10.45
2023-02-17T12:59:41.532Z,10.82
2023-02-17T13:02:20.558Z,10.00
2023-02-17T13:04:53.374Z,13.02
2023-02-17T13:07:45.247Z,9.30
2023-02-17T13:10:27.102Z,12.23
2023-02-17T13:13:01.088Z,10.30
2023-02-17T13:15:31.910Z,14.77
2023-02-17T13:18:02.867Z,12.15
2023-02-17T13:20:38.984Z,21.23
2023-02-17T13:23:10.329Z,13.20
2023-02-17T13:25:37.842Z,11.07
2023-02-17T13:28:17.869Z,11.05
2023-02-17T13:30:46.043Z,9.27
2023-02-17T13:33:29.418Z,8.50
2023-02-17T13:35:56.104Z,8.30
2023-02-17T13:38:32.919Z,10.05
2023-02-17T13:41:04.246Z,9.60
2023-02-17T13:43:39.905Z,12.45
2023-02-17T13:46:08.112Z,9.05
2023-02-17T13:48:35.842Z,12.80
2023-02-17T13:51:05.054Z,7.88
2023-02-17T13:53:40.560Z,10.93
2023-02-17T13:56:10.506Z,9.00
2023-02-17T13:58:40.092Z,10.70
2023-02-17T14:01:13.183Z,9.27
2023-02-17T14:03:39.683Z,8.60
2023-02-17T14:06:10.380Z,5.28
2023-02-17T14:08:39.855Z,8.45
2023-02-17T14:11:16.470Z,6.93
2023-02-17T14:13:46.303Z,11.13
2023-02-17T14:16:34.663Z,13.05
2023-02-17T14:19:08.662Z,8.93
2023-02-17T14:21:38.149Z,11.95
2023-02-17T14:24:04.879Z,11.55
2023-02-17T14:26:35.411Z,10.63
2023-02-17T14:29:05.787Z,9.13
2023-02-17T14:31:47.763Z,10.75
2023-02-17T14:34:35.472Z,14.43
2023-02-17T14:37:20.795Z,9.40
2023-02-17T14:39:47.368Z,9.80
2023-02-17T14:42:14.075Z,9.30
2023-02-17T14:44:40.655Z,8.38
2023-02-17T14:47:07.190Z,9.65
2023-02-17T14:49:33.696Z,5.20
2023-02-17T14:52:02.609Z,8.40
2023-02-17T14:54:30.482Z,7.20
2023-02-17T14:57:06.680Z,7.57
2023-02-17T14:59:33.346Z,6.65
2023-02-17T15:02:00.427Z,9.18
2023-02-17T15:04:27.042Z,12.13
2023-02-17T15:06:56.671Z,10.57
2023-02-17T15:09:29.915Z,11.30
2023-02-17T15:11:57.145Z,8.52
2023-02-17T15:14:24.095Z,10.48
2023-02-17T15:16:50.861Z,9.50
2023-02-17T15:19:18.468Z,9.68
2023-02-17T15:21:50.771Z,9.32
2023-02-17T15:24:25.704Z,7.97
2023-02-17T15:26:54.871Z,9.35
2023-02-17T15:29:24.039Z,8.93
2023-02-17T15:31:54.141Z,12.38
2023-02-17T15:34:24.126Z,13.27
2023-02-17T15:36:50.610Z,10.55
2023-02-17T15:39:19.920Z,9.45
2023-02-17T15:41:48.469Z,18.42
2023-02-17T15:44:19.194Z,17.92
2023-02-17T15:46:46.424Z,11.70
2023-02-17T15:49:13.681Z,11.27
2023-02-17T15:51:40.463Z,14.70
2023-02-17T15:54:07.079Z,13.35
2023-02-17T15:56:47.899Z,11.75
2023-02-17T15:59:21.878Z,9.65
2023-02-17T16:01:50.566Z,12.73
2023-02-17T16:04:17.209Z,9.10
2023-02-17T16:06:44.110Z,13.27
2023-02-17T16:09:11.142Z,11.50
2023-02-17T16:11:47.613Z,13.55
2023-02-17T16:14:32.945Z,16.25
2023-02-17T16:16:59.590Z,13.13
2023-02-17T16:19:26.147Z,14.10
2023-02-17T16:21:52.685Z,10.43
2023-02-17T16:24:19.319Z,15.32
2023-02-17T16:26:46.161Z,10.68
2023-02-17T16:29:15.944Z,10.60
2023-02-17T16:31:42.625Z,11.48
2023-02-17T16:34:17.892Z,10.02
2023-02-17T16:36:44.607Z,10.20
2023-02-17T16:39:14.294Z,9.35
2023-02-17T16:41:41.694Z,10.88
2023-02-17T16:44:19.383Z,9.60
2023-02-17T16:46:51.423Z,11.40
2023-02-17T16:49:24.528Z,38.03
2023-02-17T16:51:51.935Z,25.92
2023-02-17T16:54:18.607Z,22.33
2023-02-17T16:56:48.400Z,17.45
2023-02-17T16:59:17.465Z,19.40
2023-02-17T17:01:44.386Z,58.03
2023-02-17T17:04:11.021Z,11.32
2023-02-17T17:06:41.877Z,180.60
2023-02-17T17:09:08.674Z,168.45
2023-02-17T17:11:35.196Z,86.68
2023-02-17T17:14:01.716Z,18.33
2023-02-17T17:16:31.620Z,12.77
2023-02-17T17:21:34.217Z,10.73
2023-02-17T17:24:00.809Z,11.45
2023-02-17T17:26:30.815Z,10.75
2023-02-17T17:28:57.876Z,9.88
2023-02-17T17:31:24.898Z,12.23
2023-02-17T17:33:51.881Z,10.75
2023-02-17T17:36:30.954Z,13.57
2023-02-17T17:38:59.149Z,10.60
2023-02-17T17:41:27.261Z,14.00
2023-02-17T17:43:55.331Z,12.68
2023-02-17T17:46:25.144Z,22.27
2023-02-17T17:48:52.164Z,11.43
2023-02-17T17:51:20.941Z,12.10
2023-02-17T17:53:47.654Z,9.77
2023-02-17T17:56:20.393Z,13.50
2023-02-17T17:58:47.287Z,12.77
2023-02-17T18:01:14.565Z,13.65
2023-02-17T18:03:42.332Z,12.05
2023-02-17T18:06:22.395Z,12.50
2023-02-17T18:08:50.491Z,10.68
2023-02-17T18:11:19.286Z,11.00
2023-02-17T18:13:49.102Z,11.00
2023-02-17T18:16:16.377Z,12.35
2023-02-17T18:18:43.053Z,13.35
2023-02-17T18:21:09.630Z,13.68
2023-02-17T18:23:36.167Z,12.25
2023-02-17T18:26:02.713Z,9.25
2023-02-17T18:28:29.366Z,8.60
2023-02-17T18:30:56.946Z,11.00
2023-02-17T18:33:23.721Z,12.20
2023-02-17T18:35:50.411Z,13.10
2023-02-17T18:38:16.978Z,13.20
2023-02-17T18:40:43.552Z,10.35
2023-02-17T18:43:10.302Z,16.42
2023-02-17T18:45:36.956Z,16.05
2023-02-17T18:48:03.588Z,14.32
2023-02-17T18:50:33.002Z,11.02
2023-02-17T18:53:00.258Z,11.77
2023-02-17T18:55:26.815Z,7.78
2023-02-17T18:57:54.059Z,7.32
2023-02-17T19:00:20.825Z,13.00
2023-02-17T19:02:47.688Z,6.65
2023-02-17T19:05:14.947Z,7.68
2023-02-17T19:07:41.460Z,7.57
2023-02-17T19:10:08.780Z,10.05
2023-02-17T19:12:35.648Z,12.45
2023-02-17T19:15:02.258Z,17.83
2023-02-17T19:17:28.835Z,9.55
2023-02-17T19:19:55.507Z,5.82
2023-02-17T19:22:22.038Z,8.55
2023-02-17T19:24:53.717Z,14.75
2023-02-17T19:27:20.724Z,5.72
2023-02-17T19:29:47.598Z,10.68
2023-02-17T19:32:14.330Z,7.43
2023-02-17T19:34:40.863Z,6.25
2023-02-17T19:37:07.431Z,7.15
2023-02-17T19:39:36.088Z,6.65
2023-02-17T19:42:03.174Z,9.32
2023-02-17T19:44:31.472Z,12.15
2023-02-17T19:46:58.365Z,7.18
2023-02-17T19:49:25.003Z,8.68
2023-02-17T19:51:53.315Z,5.78
2023-02-17T19:54:19.860Z,5.95
2023-02-17T19:56:48.256Z,5.25
2023-02-17T19:59:14.854Z,6.60
2023-02-17T20:01:43.304Z,8.57
2023-02-17T20:04:10.285Z,7.72
2023-02-17T20:06:43.636Z,6.45
2023-02-17T20:09:14.942Z,8.10
2023-02-17T20:11:41.925Z,7.63
2023-02-17T20:14:10.794Z,6.32
2023-02-17T20:16:38.025Z,5.80
2023-02-17T20:19:05.190Z,7.13
2023-02-17T20:21:34.979Z,7.93
2023-02-17T20:24:02.257Z,5.72
2023-02-17T20:26:32.206Z,5.90
2023-02-17T20:28:59.635Z,6.75
2023-02-17T20:31:26.975Z,5.70
2023-02-17T20:33:53.923Z,9.00
2023-02-17T20:36:22.185Z,6.40
2023-02-17T20:38:50.024Z,6.45
2023-02-17T20:41:19.819Z,6.38
2023-02-17T20:43:46.654Z,9.57
2023-02-17T20:46:24.772Z,11.18
2023-02-17T20:48:52.248Z,10.70
2023-02-17T20:51:19.591Z,7.28
2023-02-17T20:53:46.595Z,7.95
2023-02-17T20:56:18.550Z,7.22
2023-02-17T20:58:46.127Z,8.05
2023-02-17T21:01:12.754Z,7.50
2023-02-17T21:03:39.450Z,14.23
2023-02-17T21:06:24.290Z,8.02
2023-02-17T21:08:57.008Z,10.05
2023-02-17T21:11:24.456Z,6.10
2023-02-17T21:13:51.379Z,5.55
2023-02-17T21:16:21.147Z,5.38
2023-02-17T21:18:48.008Z,9.30
2023-02-17T21:21:15.290Z,6.70
2023-02-17T21:23:42.164Z,7.43
2023-02-17T21:26:10.626Z,11.63
2023-02-17T21:28:38.022Z,6.93
2023-02-17T21:31:05.363Z,9.70
2023-02-17T21:33:32.066Z,7.95
2023-02-17T21:35:58.760Z,12.88
2023-02-17T21:38:25.271Z,9.27
2023-02-17T21:40:51.919Z,7.78
2023-02-17T21:43:38.033Z,10.30
2023-02-17T21:46:09.691Z,7.38
2023-02-17T21:48:38.157Z,9.35
2023-02-17T21:51:10.240Z,8.43
2023-02-17T21:53:37.139Z,10.63
2023-02-17T21:56:05.100Z,9.63
2023-02-17T21:58:32.395Z,9.00
2023-02-17T22:00:59.493Z,9.27
2023-02-17T22:03:26.606Z,11.73
2023-02-17T22:05:53.361Z,6.70
2023-02-17T22:08:19.893Z,8.18
2023-02-17T22:10:46.561Z,7.28
2023-02-17T22:13:13.056Z,9.07
2023-02-17T22:15:39.631Z,7.70
2023-02-17T22:18:06.162Z,7.70
2023-02-17T22:20:33.321Z,7.57
2023-02-17T22:22:59.841Z,7.93
2023-02-17T22:25:26.471Z,9.82
2023-02-17T22:27:53.341Z,9.90
2023-02-17T22:30:20.002Z,8.02
2023-02-17T22:32:46.604Z,8.27
2023-02-17T22:35:14.295Z,9.35
2023-02-17T22:37:40.894Z,11.40
2023-02-17T22:40:08.926Z,8.57
2023-02-17T22:42:35.480Z,10.70
2023-02-17T22:45:02.051Z,11.07
2023-02-17T22:47:28.622Z,10.98
2023-02-17T22:49:55.166Z,11.27
2023-02-17T22:52:22.405Z,11.52
2023-02-17T22:54:49.013Z,9.27
2023-02-17T22:57:15.618Z,11.30
2023-02-17T22:59:42.227Z,10.45
2023-02-17T23:02:08.757Z,13.93
2023-02-17T23:04:35.315Z,9.75
2023-02-17T23:07:01.945Z,12.52
2023-02-17T23:09:28.474Z,12.43
2023-02-17T23:11:55.377Z,12.75
2023-02-17T23:14:33.060Z,11.40
2023-02-17T23:17:01.992Z,11.55
2023-02-17T23:19:29.192Z,15.55
2023-02-17T23:21:58.989Z,11.52
2023-02-17T23:24:27.179Z,12.90
2023-02-17T23:26:55.718Z,19.83
2023-02-17T23:29:23.009Z,11.52
2023-02-17T23:31:49.688Z,12.77
2023-02-17T23:34:16.698Z,11.02
2023-02-17T23:36:44.915Z,11.90
2023-02-17T23:39:12.294Z,13.18
2023-02-17T23:41:39.770Z,11.18
2023-02-17T23:44:09.624Z,14.00
2023-02-17T23:46:37.043Z,11.63
2023-02-17T23:49:03.880Z,12.50
2023-02-17T23:51:30.553Z,13.88
2023-02-17T23:53:57.291Z,13.27
2023-02-17T23:56:32.129Z,14.93
2023-02-17T23:58:59.290Z,13.68
